• Join FlightAware (Why Join?)
  • Login
  • US Flag 
06:48AM EDT


 

Airport Tracker/Info


-or-


 

Live Flight TrackerFlight Track Log ✈ ASH3770 ✈ 07-May-2013 ✈ KIAD - KPIT

Flight Track Log - Related Links

Times and Time Zones

All times are in EDT time to prevent confusion due to time zone crossing. See the ASH3770 flight status page for this flight to view local times or setup timezone preferences in your user account.

Time Position Orientation Groundspeed Altitude Reporting Facility
EDT Latitude Longitude Course Direction KTS MPH feet Rate Location/Type
05:17PM 38.9667 -77.5833 290° West 271 312 2,300  Level Potomac TRACON
05:18PM 39.0272 -77.6383 325° Northwest 287 330 5,500 2,760 Climbing Washington Center
05:19PM 39.0850 -77.6722 336° Northwest 281 323 7,900 2,760 Climbing Washington Center
05:20PM 39.3334 -77.5583 344° North  Level FlightAware Approximate
05:20PM 39.1803 -77.7175 340° North 294 338 11,100  Level Washington Center
05:21PM 39.4356 -77.5833 North  Level FlightAware Approximate
05:21PM 39.2606 -77.7628 336° Northwest 300 345 13,700  Level Washington Center
05:22PM 39.4814 -77.6934 290° West  Level FlightAware Approximate
05:22PM 39.3494 -77.8139 336° Northwest 323 372 15,100  Level Washington Center
05:23PM 39.4506 -77.8681 338° Northwest 359 413 16,100 420 Climbing Washington Center
05:24PM 39.5472 -77.9328 333° Northwest 386 444 16,000 600 Descending Washington Center
05:26PM 39.6353 -78.1758 295° West 392 451 17,800 1,380 Climbing Cleveland Center
05:27PM 39.6756 -78.3147 291° West 397 457 19,900 1,080 Climbing Cleveland Center
05:28PM 39.7203 -78.4644 291° West 427 491 20,000  Climbing Cleveland Center
05:29PM 39.7647 -78.6169 291° West 445 512 20,000  Level Cleveland Center
05:30PM 39.8003 -78.7536 289° West 445 512 20,000  Level Cleveland Center
05:31PM 39.8419 -78.8986 291° West 445 512 20,000  Level Cleveland Center
05:32PM 39.8881 -79.0489 292° West 445 512 20,000  Level Cleveland Center
05:33PM 39.9317 -79.1969 291° West 445 512 20,000 -1,200 Level Cleveland Center
05:34PM 39.9728 -79.3425 290° West 440 506 17,700 -2,520 Descending Cleveland Center
05:35PM 40.0408 -79.4631 306° West 418 481 15,000 -2,640 Descending Cleveland Center
05:36PM 40.1106 -79.5758 309° West 413 475 12,500 -2,400 Descending Cleveland Center
05:37PM 40.1783 -79.6836 309° West 400 460 10,200 -1,200 Descending Cleveland Center
05:38PM 40.2292 -79.7944 301° West 379 436 10,100 -120 Descending Cleveland Center
05:39PM 40.2800 -79.9136 299° West 366 421 10,000 -420 Descending Cleveland Center
05:40PM 40.3222 -80.0111 300° West 342 394 9,300 -960 Descending Cleveland Center
05:41PM 40.3558 -80.1036 296° West 306 352 8,100 -720 Descending Cleveland Center
05:42PM 40.3897 -80.2042 294° West 299 344 7,900 -960 Descending Cleveland Center
05:43PM 40.3669 -80.3025 253° West 280 322 6,200 -1,980 Descending Cleveland Center
05:44PM 40.3942 -80.4006 290° West 275 316 4,000 -1,560 Descending Cleveland Center
05:45PM 40.4631 -80.4247 345° North 209 241 3,100 -900 Descending Cleveland Center